sensor_id;sensor_type;location;lat;lon;timestamp;P1;durP1;ratioP1;P2;durP2;ratioP2
6354;SDS011;3210;48.708;9.030;2023-02-28T00:01:06;2.23;;;1.77;;
6354;SDS011;3210;48.708;9.030;2023-02-28T00:03:33;3.07;;;1.80;;
6354;SDS011;3210;48.708;9.030;2023-02-28T00:06:01;2.50;;;1.50;;
6354;SDS011;3210;48.708;9.030;2023-02-28T00:08:28;4.03;;;1.90;;
6354;SDS011;3210;48.708;9.030;2023-02-28T00:10:55;2.03;;;1.50;;
6354;SDS011;3210;48.708;9.030;2023-02-28T00:13:22;3.40;;;1.73;;
6354;SDS011;3210;48.708;9.030;2023-02-28T00:15:59;1.27;;;1.17;;
6354;SDS011;3210;48.708;9.030;2023-02-28T00:18:26;3.57;;;1.30;;
6354;SDS011;3210;48.708;9.030;2023-02-28T00:20:53;4.13;;;1.50;;
6354;SDS011;3210;48.708;9.030;2023-02-28T00:23:19;4.07;;;2.83;;
6354;SDS011;3210;48.708;9.030;2023-02-28T00:25:46;3.37;;;1.47;;
6354;SDS011;3210;48.708;9.030;2023-02-28T00:28:13;3.30;;;1.60;;
6354;SDS011;3210;48.708;9.030;2023-02-28T00:30:40;4.20;;;2.27;;
6354;SDS011;3210;48.708;9.030;2023-02-28T00:33:08;2.90;;;1.73;;
6354;SDS011;3210;48.708;9.030;2023-02-28T00:35:35;1.77;;;1.33;;
6354;SDS011;3210;48.708;9.030;2023-02-28T00:38:01;2.90;;;1.60;;
6354;SDS011;3210;48.708;9.030;2023-02-28T00:40:29;3.93;;;1.63;;
6354;SDS011;3210;48.708;9.030;2023-02-28T00:42:56;1.30;;;1.20;;
6354;SDS011;3210;48.708;9.030;2023-02-28T00:45:22;2.20;;;1.53;;
6354;SDS011;3210;48.708;9.030;2023-02-28T00:47:49;2.70;;;1.87;;
6354;SDS011;3210;48.708;9.030;2023-02-28T00:50:17;1.50;;;1.40;;
6354;SDS011;3210;48.708;9.030;2023-02-28T00:52:45;1.80;;;1.70;;
6354;SDS011;3210;48.708;9.030;2023-02-28T00:55:12;1.97;;;1.83;;
6354;SDS011;3210;48.708;9.030;2023-02-28T00:57:39;1.90;;;1.33;;
6354;SDS011;3210;48.708;9.030;2023-02-28T01:00:06;1.37;;;1.27;;
6354;SDS011;3210;48.708;9.030;2023-02-28T01:02:34;3.97;;;1.90;;
6354;SDS011;3210;48.708;9.030;2023-02-28T01:05:01;1.63;;;1.40;;
6354;SDS011;3210;48.708;9.030;2023-02-28T01:07:29;1.60;;;1.50;;
6354;SDS011;3210;48.708;9.030;2023-02-28T01:09:56;3.23;;;1.33;;
6354;SDS011;3210;48.708;9.030;2023-02-28T01:12:23;2.50;;;1.20;;
6354;SDS011;3210;48.708;9.030;2023-02-28T01:14:50;2.27;;;1.63;;
6354;SDS011;3210;48.708;9.030;2023-02-28T01:17:16;2.50;;;2.20;;
6354;SDS011;3210;48.708;9.030;2023-02-28T01:19:43;5.33;;;2.07;;
6354;SDS011;3210;48.708;9.030;2023-02-28T01:22:10;3.90;;;1.50;;
6354;SDS011;3210;48.708;9.030;2023-02-28T01:24:38;2.40;;;1.20;;
6354;SDS011;3210;48.708;9.030;2023-02-28T01:27:05;2.00;;;1.77;;
6354;SDS011;3210;48.708;9.030;2023-02-28T01:29:31;2.23;;;1.87;;
6354;SDS011;3210;48.708;9.030;2023-02-28T01:31:58;3.00;;;2.30;;
6354;SDS011;3210;48.708;9.030;2023-02-28T01:34:25;3.00;;;2.00;;
6354;SDS011;3210;48.708;9.030;2023-02-28T01:36:52;5.13;;;1.67;;
6354;SDS011;3210;48.708;9.030;2023-02-28T01:39:19;3.90;;;1.83;;
6354;SDS011;3210;48.708;9.030;2023-02-28T01:41:47;4.50;;;1.70;;
6354;SDS011;3210;48.708;9.030;2023-02-28T01:47:17;4.67;;;1.87;;
6354;SDS011;3210;48.708;9.030;2023-02-28T01:49:44;2.13;;;1.80;;
6354;SDS011;3210;48.708;9.030;2023-02-28T01:52:11;2.33;;;2.13;;
6354;SDS011;3210;48.708;9.030;2023-02-28T01:54:43;3.60;;;2.00;;
6354;SDS011;3210;48.708;9.030;2023-02-28T01:57:18;4.83;;;2.43;;
6354;SDS011;3210;48.708;9.030;2023-02-28T01:59:49;1.90;;;1.47;;
6354;SDS011;3210;48.708;9.030;2023-02-28T02:02:20;2.30;;;1.70;;
6354;SDS011;3210;48.708;9.030;2023-02-28T02:04:50;1.73;;;1.40;;
6354;SDS011;3210;48.708;9.030;2023-02-28T02:07:20;1.90;;;1.80;;
6354;SDS011;3210;48.708;9.030;2023-02-28T02:09:49;2.83;;;1.70;;
6354;SDS011;3210;48.708;9.030;2023-02-28T02:12:21;5.77;;;2.23;;
6354;SDS011;3210;48.708;9.030;2023-02-28T02:14:58;2.40;;;1.67;;
6354;SDS011;3210;48.708;9.030;2023-02-28T02:17:34;2.30;;;1.87;;
6354;SDS011;3210;48.708;9.030;2023-02-28T02:26:00;3.13;;;1.97;;
6354;SDS011;3210;48.708;9.030;2023-02-28T02:34:43;4.77;;;1.90;;
6354;SDS011;3210;48.708;9.030;2023-02-28T02:37:21;6.77;;;2.00;;
6354;SDS011;3210;48.708;9.030;2023-02-28T02:39:54;2.50;;;1.73;;
6354;SDS011;3210;48.708;9.030;2023-02-28T02:42:27;2.93;;;2.30;;
6354;SDS011;3210;48.708;9.030;2023-02-28T02:44:59;2.00;;;1.90;;
6354;SDS011;3210;48.708;9.030;2023-02-28T02:47:30;3.00;;;2.37;;
6354;SDS011;3210;48.708;9.030;2023-02-28T02:50:01;2.63;;;2.43;;
6354;SDS011;3210;48.708;9.030;2023-02-28T02:52:32;4.33;;;2.03;;
6354;SDS011;3210;48.708;9.030;2023-02-28T02:55:05;3.37;;;2.60;;
6354;SDS011;3210;48.708;9.030;2023-02-28T02:57:38;5.47;;;2.30;;
6354;SDS011;3210;48.708;9.030;2023-02-28T03:00:11;3.00;;;2.60;;
6354;SDS011;3210;48.708;9.030;2023-02-28T03:02:39;3.50;;;3.20;;
6354;SDS011;3210;48.708;9.030;2023-02-28T03:05:14;3.37;;;2.53;;
6354;SDS011;3210;48.708;9.030;2023-02-28T03:07:44;2.80;;;1.60;;
6354;SDS011;3210;48.708;9.030;2023-02-28T03:10:32;2.00;;;1.80;;
6354;SDS011;3210;48.708;9.030;2023-02-28T03:13:13;4.30;;;3.00;;
6354;SDS011;3210;48.708;9.030;2023-02-28T03:15:58;2.70;;;2.47;;
6354;SDS011;3210;48.708;9.030;2023-02-28T03:18:36;2.63;;;2.13;;
6354;SDS011;3210;48.708;9.030;2023-02-28T03:21:12;3.17;;;2.90;;
6354;SDS011;3210;48.708;9.030;2023-02-28T03:23:48;3.97;;;2.37;;
6354;SDS011;3210;48.708;9.030;2023-02-28T03:26:24;5.70;;;2.73;;
6354;SDS011;3210;48.708;9.030;2023-02-28T03:28:54;4.50;;;2.67;;
6354;SDS011;3210;48.708;9.030;2023-02-28T03:31:29;3.43;;;2.60;;
6354;SDS011;3210;48.708;9.030;2023-02-28T03:34:00;4.63;;;2.37;;
6354;SDS011;3210;48.708;9.030;2023-02-28T03:36:33;4.60;;;2.67;;
6354;SDS011;3210;48.708;9.030;2023-02-28T03:39:09;3.07;;;2.67;;
6354;SDS011;3210;48.708;9.030;2023-02-28T03:41:41;3.40;;;2.47;;
6354;SDS011;3210;48.708;9.030;2023-02-28T03:44:13;3.57;;;3.27;;
6354;SDS011;3210;48.708;9.030;2023-02-28T03:46:45;4.73;;;2.97;;
6354;SDS011;3210;48.708;9.030;2023-02-28T03:49:18;3.33;;;2.50;;
6354;SDS011;3210;48.708;9.030;2023-02-28T03:51:51;3.20;;;2.30;;
6354;SDS011;3210;48.708;9.030;2023-02-28T03:54:21;3.53;;;3.23;;
6354;SDS011;3210;48.708;9.030;2023-02-28T03:56:53;3.20;;;2.90;;
6354;SDS011;3210;48.708;9.030;2023-02-28T03:59:27;3.40;;;2.60;;
6354;SDS011;3210;48.708;9.030;2023-02-28T04:01:58;4.77;;;2.33;;
6354;SDS011;3210;48.708;9.030;2023-02-28T04:04:25;7.20;;;3.33;;
6354;SDS011;3210;48.708;9.030;2023-02-28T04:07:00;3.83;;;3.30;;
6354;SDS011;3210;48.708;9.030;2023-02-28T04:09:28;3.97;;;2.80;;
6354;SDS011;3210;48.708;9.030;2023-02-28T04:11:55;2.90;;;2.70;;
6354;SDS011;3210;48.708;9.030;2023-02-28T04:14:22;4.07;;;2.70;;
6354;SDS011;3210;48.708;9.030;2023-02-28T04:16:49;6.63;;;2.83;;
6354;SDS011;3210;48.708;9.030;2023-02-28T04:19:17;2.07;;;1.80;;
6354;SDS011;3210;48.708;9.030;2023-02-28T04:21:44;3.50;;;2.60;;
6354;SDS011;3210;48.708;9.030;2023-02-28T04:24:14;4.63;;;2.60;;
6354;SDS011;3210;48.708;9.030;2023-02-28T04:26:42;5.67;;;3.47;;
6354;SDS011;3210;48.708;9.030;2023-02-28T04:29:12;3.77;;;3.30;;
6354;SDS011;3210;48.708;9.030;2023-02-28T04:31:40;6.03;;;3.73;;
6354;SDS011;3210;48.708;9.030;2023-02-28T04:34:07;5.03;;;3.10;;
6354;SDS011;3210;48.708;9.030;2023-02-28T04:36:34;6.90;;;3.40;;
6354;SDS011;3210;48.708;9.030;2023-02-28T04:39:01;4.73;;;3.57;;
6354;SDS011;3210;48.708;9.030;2023-02-28T04:41:30;4.80;;;2.90;;
6354;SDS011;3210;48.708;9.030;2023-02-28T04:43:57;4.93;;;2.83;;
6354;SDS011;3210;48.708;9.030;2023-02-28T04:46:23;3.40;;;3.03;;
6354;SDS011;3210;48.708;9.030;2023-02-28T04:48:50;3.40;;;3.10;;
6354;SDS011;3210;48.708;9.030;2023-02-28T04:51:18;6.50;;;2.73;;
6354;SDS011;3210;48.708;9.030;2023-02-28T04:53:46;6.80;;;3.73;;
6354;SDS011;3210;48.708;9.030;2023-02-28T04:56:14;4.40;;;3.73;;
6354;SDS011;3210;48.708;9.030;2023-02-28T04:58:43;2.40;;;2.13;;
6354;SDS011;3210;48.708;9.030;2023-02-28T05:01:18;3.67;;;2.53;;
6354;SDS011;3210;48.708;9.030;2023-02-28T05:03:47;4.40;;;4.00;;
6354;SDS011;3210;48.708;9.030;2023-02-28T05:06:14;9.90;;;3.63;;
6354;SDS011;3210;48.708;9.030;2023-02-28T05:08:42;9.50;;;3.00;;
6354;SDS011;3210;48.708;9.030;2023-02-28T05:11:12;5.87;;;4.13;;
6354;SDS011;3210;48.708;9.030;2023-02-28T05:13:41;3.20;;;2.90;;
6354;SDS011;3210;48.708;9.030;2023-02-28T05:16:09;6.40;;;3.90;;
6354;SDS011;3210;48.708;9.030;2023-02-28T05:18:36;4.10;;;3.67;;
6354;SDS011;3210;48.708;9.030;2023-02-28T05:21:03;3.93;;;3.50;;
6354;SDS011;3210;48.708;9.030;2023-02-28T05:23:30;5.87;;;4.17;;
6354;SDS011;3210;48.708;9.030;2023-02-28T05:25:57;11.87;;;5.60;;
6354;SDS011;3210;48.708;9.030;2023-02-28T05:28:23;10.70;;;5.80;;
6354;SDS011;3210;48.708;9.030;2023-02-28T05:30:50;10.33;;;4.37;;
6354;SDS011;3210;48.708;9.030;2023-02-28T05:33:18;14.53;;;7.53;;
6354;SDS011;3210;48.708;9.030;2023-02-28T05:35:45;6.90;;;3.70;;
6354;SDS011;3210;48.708;9.030;2023-02-28T05:38:12;8.97;;;5.70;;
6354;SDS011;3210;48.708;9.030;2023-02-28T05:40:39;5.23;;;4.13;;
6354;SDS011;3210;48.708;9.030;2023-02-28T05:43:06;9.27;;;5.27;;
6354;SDS011;3210;48.708;9.030;2023-02-28T05:45:36;12.70;;;6.27;;
6354;SDS011;3210;48.708;9.030;2023-02-28T05:48:03;11.30;;;6.93;;
6354;SDS011;3210;48.708;9.030;2023-02-28T05:50:32;4.43;;;2.87;;
6354;SDS011;3210;48.708;9.030;2023-02-28T05:52:58;5.10;;;3.20;;
6354;SDS011;3210;48.708;9.030;2023-02-28T05:55:25;3.60;;;3.00;;
6354;SDS011;3210;48.708;9.030;2023-02-28T05:57:52;5.40;;;3.50;;
6354;SDS011;3210;48.708;9.030;2023-02-28T06:00:19;8.33;;;3.87;;
6354;SDS011;3210;48.708;9.030;2023-02-28T06:02:46;7.60;;;4.23;;
6354;SDS011;3210;48.708;9.030;2023-02-28T06:05:14;7.93;;;4.90;;
6354;SDS011;3210;48.708;9.030;2023-02-28T06:07:44;8.17;;;4.70;;
6354;SDS011;3210;48.708;9.030;2023-02-28T06:10:11;8.33;;;4.27;;
6354;SDS011;3210;48.708;9.030;2023-02-28T06:12:38;5.57;;;4.40;;
6354;SDS011;3210;48.708;9.030;2023-02-28T06:15:06;11.20;;;4.70;;
6354;SDS011;3210;48.708;9.030;2023-02-28T06:17:36;6.83;;;4.50;;
6354;SDS011;3210;48.708;9.030;2023-02-28T06:20:03;10.33;;;4.70;;
6354;SDS011;3210;48.708;9.030;2023-02-28T06:22:30;9.77;;;4.93;;
6354;SDS011;3210;48.708;9.030;2023-02-28T06:24:58;6.47;;;4.40;;
6354;SDS011;3210;48.708;9.030;2023-02-28T06:27:25;5.33;;;3.90;;
6354;SDS011;3210;48.708;9.030;2023-02-28T06:29:53;5.53;;;3.93;;
6354;SDS011;3210;48.708;9.030;2023-02-28T06:32:20;13.73;;;5.23;;
6354;SDS011;3210;48.708;9.030;2023-02-28T06:34:47;4.70;;;3.97;;
6354;SDS011;3210;48.708;9.030;2023-02-28T06:37:15;8.53;;;5.57;;
6354;SDS011;3210;48.708;9.030;2023-02-28T06:39:42;9.93;;;4.87;;
6354;SDS011;3210;48.708;9.030;2023-02-28T06:42:10;8.47;;;5.47;;
6354;SDS011;3210;48.708;9.030;2023-02-28T06:44:38;5.87;;;4.53;;
6354;SDS011;3210;48.708;9.030;2023-02-28T06:47:05;6.23;;;3.80;;
6354;SDS011;3210;48.708;9.030;2023-02-28T06:49:33;4.20;;;3.40;;
6354;SDS011;3210;48.708;9.030;2023-02-28T06:52:01;3.87;;;2.57;;
6354;SDS011;3210;48.708;9.030;2023-02-28T06:54:28;14.60;;;6.03;;
6354;SDS011;3210;48.708;9.030;2023-02-28T06:56:56;11.90;;;5.67;;
6354;SDS011;3210;48.708;9.030;2023-02-28T06:59:25;5.60;;;4.93;;
6354;SDS011;3210;48.708;9.030;2023-02-28T07:01:52;7.37;;;4.70;;
6354;SDS011;3210;48.708;9.030;2023-02-28T07:04:20;12.13;;;5.07;;
6354;SDS011;3210;48.708;9.030;2023-02-28T07:06:47;8.00;;;4.70;;
6354;SDS011;3210;48.708;9.030;2023-02-28T07:09:13;8.83;;;4.83;;
6354;SDS011;3210;48.708;9.030;2023-02-28T07:11:40;5.90;;;4.33;;
6354;SDS011;3210;48.708;9.030;2023-02-28T07:14:08;7.20;;;4.07;;
6354;SDS011;3210;48.708;9.030;2023-02-28T07:16:36;7.93;;;4.50;;
6354;SDS011;3210;48.708;9.030;2023-02-28T07:19:02;8.20;;;4.80;;
6354;SDS011;3210;48.708;9.030;2023-02-28T07:21:29;5.97;;;4.80;;
6354;SDS011;3210;48.708;9.030;2023-02-28T07:23:56;6.87;;;4.93;;
6354;SDS011;3210;48.708;9.030;2023-02-28T07:26:23;4.23;;;3.37;;
6354;SDS011;3210;48.708;9.030;2023-02-28T07:28:50;15.93;;;5.90;;
6354;SDS011;3210;48.708;9.030;2023-02-28T07:31:17;9.63;;;6.03;;
6354;SDS011;3210;48.708;9.030;2023-02-28T07:33:45;8.50;;;5.30;;
6354;SDS011;3210;48.708;9.030;2023-02-28T07:36:13;7.80;;;4.50;;
6354;SDS011;3210;48.708;9.030;2023-02-28T07:38:43;5.00;;;3.80;;
6354;SDS011;3210;48.708;9.030;2023-02-28T07:41:13;5.37;;;4.30;;
6354;SDS011;3210;48.708;9.030;2023-02-28T07:43:40;15.73;;;6.77;;
6354;SDS011;3210;48.708;9.030;2023-02-28T07:46:08;12.10;;;5.40;;
6354;SDS011;3210;48.708;9.030;2023-02-28T07:48:36;8.60;;;6.30;;
6354;SDS011;3210;48.708;9.030;2023-02-28T07:51:04;8.53;;;5.67;;
6354;SDS011;3210;48.708;9.030;2023-02-28T07:53:31;9.87;;;5.17;;
6354;SDS011;3210;48.708;9.030;2023-02-28T07:55:59;4.73;;;3.77;;
6354;SDS011;3210;48.708;9.030;2023-02-28T07:58:27;5.10;;;4.10;;
6354;SDS011;3210;48.708;9.030;2023-02-28T08:00:55;12.60;;;6.30;;
6354;SDS011;3210;48.708;9.030;2023-02-28T08:03:30;7.47;;;5.57;;
6354;SDS011;3210;48.708;9.030;2023-02-28T08:05:57;7.07;;;4.47;;
6354;SDS011;3210;48.708;9.030;2023-02-28T08:08:25;6.33;;;4.97;;
6354;SDS011;3210;48.708;9.030;2023-02-28T08:10:54;9.93;;;6.27;;
6354;SDS011;3210;48.708;9.030;2023-02-28T08:13:20;11.40;;;5.30;;
6354;SDS011;3210;48.708;9.030;2023-02-28T08:15:47;10.30;;;5.90;;
6354;SDS011;3210;48.708;9.030;2023-02-28T08:18:14;9.57;;;4.97;;
6354;SDS011;3210;48.708;9.030;2023-02-28T08:20:41;10.77;;;6.40;;
6354;SDS011;3210;48.708;9.030;2023-02-28T08:23:07;7.67;;;5.30;;
6354;SDS011;3210;48.708;9.030;2023-02-28T08:25:35;10.53;;;6.50;;
6354;SDS011;3210;48.708;9.030;2023-02-28T08:28:02;4.77;;;3.73;;
6354;SDS011;3210;48.708;9.030;2023-02-28T08:30:29;13.60;;;6.73;;
6354;SDS011;3210;48.708;9.030;2023-02-28T08:32:56;7.73;;;5.50;;
6354;SDS011;3210;48.708;9.030;2023-02-28T08:35:23;9.13;;;6.10;;
6354;SDS011;3210;48.708;9.030;2023-02-28T08:37:50;9.73;;;5.40;;
6354;SDS011;3210;48.708;9.030;2023-02-28T08:40:17;5.67;;;3.77;;
6354;SDS011;3210;48.708;9.030;2023-02-28T08:42:45;9.57;;;6.07;;
6354;SDS011;3210;48.708;9.030;2023-02-28T08:45:12;11.00;;;5.50;;
6354;SDS011;3210;48.708;9.030;2023-02-28T08:47:40;10.07;;;6.50;;
6354;SDS011;3210;48.708;9.030;2023-02-28T08:50:07;14.40;;;6.00;;
6354;SDS011;3210;48.708;9.030;2023-02-28T08:52:35;9.30;;;5.80;;
6354;SDS011;3210;48.708;9.030;2023-02-28T08:55:03;8.30;;;5.97;;
6354;SDS011;3210;48.708;9.030;2023-02-28T08:57:30;13.77;;;5.57;;
6354;SDS011;3210;48.708;9.030;2023-02-28T08:59:59;12.70;;;7.00;;
6354;SDS011;3210;48.708;9.030;2023-02-28T09:02:29;7.13;;;5.57;;
6354;SDS011;3210;48.708;9.030;2023-02-28T09:04:56;11.20;;;5.83;;
6354;SDS011;3210;48.708;9.030;2023-02-28T09:07:23;6.70;;;5.23;;
6354;SDS011;3210;48.708;9.030;2023-02-28T09:09:49;10.13;;;5.80;;
6354;SDS011;3210;48.708;9.030;2023-02-28T09:12:23;8.87;;;5.60;;
6354;SDS011;3210;48.708;9.030;2023-02-28T09:14:50;9.73;;;6.30;;
6354;SDS011;3210;48.708;9.030;2023-02-28T09:17:19;12.70;;;6.40;;
6354;SDS011;3210;48.708;9.030;2023-02-28T09:19:47;10.60;;;5.87;;
6354;SDS011;3210;48.708;9.030;2023-02-28T09:22:14;9.40;;;6.07;;
6354;SDS011;3210;48.708;9.030;2023-02-28T09:24:41;8.10;;;5.10;;
6354;SDS011;3210;48.708;9.030;2023-02-28T09:27:09;9.33;;;6.67;;
6354;SDS011;3210;48.708;9.030;2023-02-28T09:29:36;11.80;;;6.93;;
6354;SDS011;3210;48.708;9.030;2023-02-28T09:32:03;10.50;;;6.20;;
6354;SDS011;3210;48.708;9.030;2023-02-28T09:34:32;9.43;;;6.80;;
6354;SDS011;3210;48.708;9.030;2023-02-28T09:36:58;8.10;;;5.57;;
6354;SDS011;3210;48.708;9.030;2023-02-28T09:39:25;8.57;;;6.73;;
6354;SDS011;3210;48.708;9.030;2023-02-28T09:41:53;12.83;;;6.80;;
6354;SDS011;3210;48.708;9.030;2023-02-28T09:44:22;11.93;;;6.87;;
6354;SDS011;3210;48.708;9.030;2023-02-28T09:46:55;41.53;;;7.80;;
6354;SDS011;3210;48.708;9.030;2023-02-28T09:49:27;12.77;;;7.47;;
6354;SDS011;3210;48.708;9.030;2023-02-28T09:52:01;12.10;;;7.50;;
6354;SDS011;3210;48.708;9.030;2023-02-28T09:54:30;10.30;;;5.70;;
6354;SDS011;3210;48.708;9.030;2023-02-28T09:56:59;10.00;;;6.13;;
6354;SDS011;3210;48.708;9.030;2023-02-28T09:59:35;8.23;;;6.47;;
6354;SDS011;3210;48.708;9.030;2023-02-28T10:02:13;12.07;;;6.50;;
6354;SDS011;3210;48.708;9.030;2023-02-28T10:04:52;15.00;;;7.20;;
6354;SDS011;3210;48.708;9.030;2023-02-28T10:07:25;17.23;;;6.83;;
6354;SDS011;3210;48.708;9.030;2023-02-28T10:10:04;11.00;;;5.70;;
6354;SDS011;3210;48.708;9.030;2023-02-28T10:12:40;10.10;;;7.30;;
6354;SDS011;3210;48.708;9.030;2023-02-28T10:15:13;9.60;;;6.70;;
6354;SDS011;3210;48.708;9.030;2023-02-28T10:17:41;8.43;;;5.77;;
6354;SDS011;3210;48.708;9.030;2023-02-28T10:20:13;11.17;;;6.07;;
6354;SDS011;3210;48.708;9.030;2023-02-28T10:22:49;16.53;;;7.07;;
6354;SDS011;3210;48.708;9.030;2023-02-28T10:25:20;14.60;;;7.33;;
6354;SDS011;3210;48.708;9.030;2023-02-28T10:27:48;9.67;;;6.27;;
6354;SDS011;3210;48.708;9.030;2023-02-28T10:30:16;12.30;;;6.40;;
6354;SDS011;3210;48.708;9.030;2023-02-28T10:32:50;12.57;;;7.50;;
6354;SDS011;3210;48.708;9.030;2023-02-28T10:35:21;10.70;;;7.20;;
6354;SDS011;3210;48.708;9.030;2023-02-28T10:37:49;14.70;;;6.57;;
6354;SDS011;3210;48.708;9.030;2023-02-28T10:40:28;8.43;;;7.10;;
6354;SDS011;3210;48.708;9.030;2023-02-28T10:42:59;11.70;;;5.90;;
6354;SDS011;3210;48.708;9.030;2023-02-28T10:45:27;8.97;;;6.87;;
6354;SDS011;3210;48.708;9.030;2023-02-28T10:47:57;11.00;;;7.50;;
6354;SDS011;3210;48.708;9.030;2023-02-28T10:50:32;13.57;;;7.63;;
6354;SDS011;3210;48.708;9.030;2023-02-28T10:53:07;10.77;;;6.80;;
6354;SDS011;3210;48.708;9.030;2023-02-28T10:55:42;12.33;;;6.57;;
6354;SDS011;3210;48.708;9.030;2023-02-28T10:58:20;10.83;;;5.97;;
6354;SDS011;3210;48.708;9.030;2023-02-28T11:00:48;14.17;;;6.50;;
6354;SDS011;3210;48.708;9.030;2023-02-28T11:03:23;7.63;;;6.03;;
6354;SDS011;3210;48.708;9.030;2023-02-28T11:05:56;7.27;;;5.33;;
6354;SDS011;3210;48.708;9.030;2023-02-28T11:08:23;7.37;;;5.33;;
6354;SDS011;3210;48.708;9.030;2023-02-28T11:10:53;7.50;;;5.67;;
6354;SDS011;3210;48.708;9.030;2023-02-28T11:13:24;10.03;;;5.57;;
6354;SDS011;3210;48.708;9.030;2023-02-28T11:15:53;8.43;;;5.43;;
6354;SDS011;3210;48.708;9.030;2023-02-28T11:18:23;12.63;;;6.43;;
6354;SDS011;3210;48.708;9.030;2023-02-28T11:20:55;10.87;;;6.23;;
6354;SDS011;3210;48.708;9.030;2023-02-28T11:23:25;13.97;;;7.77;;
6354;SDS011;3210;48.708;9.030;2023-02-28T11:25:55;21.10;;;6.93;;
6354;SDS011;3210;48.708;9.030;2023-02-28T11:28:26;9.00;;;6.20;;
6354;SDS011;3210;48.708;9.030;2023-02-28T11:31:03;6.23;;;5.30;;
6354;SDS011;3210;48.708;9.030;2023-02-28T11:33:32;9.07;;;6.70;;
6354;SDS011;3210;48.708;9.030;2023-02-28T11:36:10;16.73;;;7.10;;
6354;SDS011;3210;48.708;9.030;2023-02-28T11:38:39;13.40;;;7.40;;
6354;SDS011;3210;48.708;9.030;2023-02-28T11:41:09;15.83;;;6.80;;
6354;SDS011;3210;48.708;9.030;2023-02-28T11:44:04;11.33;;;6.50;;
6354;SDS011;3210;48.708;9.030;2023-02-28T11:46:39;11.97;;;7.07;;
6354;SDS011;3210;48.708;9.030;2023-02-28T11:49:14;13.43;;;7.17;;
6354;SDS011;3210;48.708;9.030;2023-02-28T11:51:59;11.30;;;5.70;;
6354;SDS011;3210;48.708;9.030;2023-02-28T11:54:35;8.77;;;5.40;;
6354;SDS011;3210;48.708;9.030;2023-02-28T11:57:31;14.40;;;7.40;;
6354;SDS011;3210;48.708;9.030;2023-02-28T12:00:18;16.33;;;7.93;;
6354;SDS011;3210;48.708;9.030;2023-02-28T12:02:59;10.03;;;6.03;;
6354;SDS011;3210;48.708;9.030;2023-02-28T12:05:36;12.13;;;8.10;;
6354;SDS011;3210;48.708;9.030;2023-02-28T12:08:15;12.20;;;8.00;;
6354;SDS011;3210;48.708;9.030;2023-02-28T12:10:54;9.47;;;6.83;;
6354;SDS011;3210;48.708;9.030;2023-02-28T12:13:29;15.17;;;7.87;;
6354;SDS011;3210;48.708;9.030;2023-02-28T12:16:16;11.50;;;6.00;;
6354;SDS011;3210;48.708;9.030;2023-02-28T12:19:13;8.90;;;6.43;;
6354;SDS011;3210;48.708;9.030;2023-02-28T12:21:48;9.00;;;6.00;;
6354;SDS011;3210;48.708;9.030;2023-02-28T12:24:41;13.40;;;7.30;;
6354;SDS011;3210;48.708;9.030;2023-02-28T12:27:26;8.97;;;7.00;;
6354;SDS011;3210;48.708;9.030;2023-02-28T12:29:58;8.10;;;6.63;;
6354;SDS011;3210;48.708;9.030;2023-02-28T12:32:30;15.80;;;7.40;;
6354;SDS011;3210;48.708;9.030;2023-02-28T12:35:01;12.63;;;7.20;;
6354;SDS011;3210;48.708;9.030;2023-02-28T12:37:32;11.93;;;7.73;;
6354;SDS011;3210;48.708;9.030;2023-02-28T12:40:06;11.97;;;6.23;;
6354;SDS011;3210;48.708;9.030;2023-02-28T12:42:39;6.80;;;4.10;;
6354;SDS011;3210;48.708;9.030;2023-02-28T12:45:10;14.03;;;7.53;;
6354;SDS011;3210;48.708;9.030;2023-02-28T12:47:41;14.93;;;7.00;;
6354;SDS011;3210;48.708;9.030;2023-02-28T12:50:10;14.97;;;6.70;;
6354;SDS011;3210;48.708;9.030;2023-02-28T12:52:40;10.63;;;6.80;;
6354;SDS011;3210;48.708;9.030;2023-02-28T12:55:17;12.10;;;7.77;;
6354;SDS011;3210;48.708;9.030;2023-02-28T12:57:52;8.17;;;5.70;;
6354;SDS011;3210;48.708;9.030;2023-02-28T13:00:29;13.40;;;7.00;;
6354;SDS011;3210;48.708;9.030;2023-02-28T13:06:13;10.37;;;6.30;;
6354;SDS011;3210;48.708;9.030;2023-02-28T13:11:40;8.63;;;6.63;;
6354;SDS011;3210;48.708;9.030;2023-02-28T13:14:23;9.73;;;6.63;;
6354;SDS011;3210;48.708;9.030;2023-02-28T13:19:38;12.67;;;7.50;;
6354;SDS011;3210;48.708;9.030;2023-02-28T13:22:15;10.23;;;6.47;;
6354;SDS011;3210;48.708;9.030;2023-02-28T13:24:46;9.87;;;6.50;;
6354;SDS011;3210;48.708;9.030;2023-02-28T13:33:23;7.63;;;6.10;;
6354;SDS011;3210;48.708;9.030;2023-02-28T13:36:09;13.53;;;6.23;;
6354;SDS011;3210;48.708;9.030;2023-02-28T13:38:54;8.70;;;6.30;;
6354;SDS011;3210;48.708;9.030;2023-02-28T13:44:23;8.33;;;6.87;;
6354;SDS011;3210;48.708;9.030;2023-02-28T13:49:51;16.53;;;6.90;;
6354;SDS011;3210;48.708;9.030;2023-02-28T13:52:20;9.43;;;7.20;;
6354;SDS011;3210;48.708;9.030;2023-02-28T13:54:51;7.13;;;5.90;;
6354;SDS011;3210;48.708;9.030;2023-02-28T13:57:43;8.03;;;6.00;;
6354;SDS011;3210;48.708;9.030;2023-02-28T14:00:37;12.37;;;7.43;;
6354;SDS011;3210;48.708;9.030;2023-02-28T14:03:37;10.50;;;6.27;;
6354;SDS011;3210;48.708;9.030;2023-02-28T14:06:18;14.93;;;7.40;;
6354;SDS011;3210;48.708;9.030;2023-02-28T14:08:52;8.40;;;6.77;;
6354;SDS011;3210;48.708;9.030;2023-02-28T14:11:29;9.63;;;6.43;;
6354;SDS011;3210;48.708;9.030;2023-02-28T14:13:57;7.83;;;5.40;;
6354;SDS011;3210;48.708;9.030;2023-02-28T14:16:27;13.07;;;6.80;;
6354;SDS011;3210;48.708;9.030;2023-02-28T14:19:05;12.20;;;6.97;;
6354;SDS011;3210;48.708;9.030;2023-02-28T14:21:38;11.97;;;6.80;;
6354;SDS011;3210;48.708;9.030;2023-02-28T14:27:19;10.60;;;7.23;;
6354;SDS011;3210;48.708;9.030;2023-02-28T14:32:45;8.90;;;6.83;;
6354;SDS011;3210;48.708;9.030;2023-02-28T14:35:20;8.40;;;5.90;;
6354;SDS011;3210;48.708;9.030;2023-02-28T14:38:02;5.30;;;3.80;;
6354;SDS011;3210;48.708;9.030;2023-02-28T14:40:32;8.13;;;6.03;;
6354;SDS011;3210;48.708;9.030;2023-02-28T14:43:01;9.30;;;7.00;;
6354;SDS011;3210;48.708;9.030;2023-02-28T14:45:29;10.33;;;6.53;;
6354;SDS011;3210;48.708;9.030;2023-02-28T14:47:59;8.63;;;6.37;;
6354;SDS011;3210;48.708;9.030;2023-02-28T14:50:29;5.70;;;4.77;;
6354;SDS011;3210;48.708;9.030;2023-02-28T14:52:58;6.67;;;6.00;;
6354;SDS011;3210;48.708;9.030;2023-02-28T14:55:26;9.60;;;5.83;;
6354;SDS011;3210;48.708;9.030;2023-02-28T14:57:57;10.10;;;7.07;;
6354;SDS011;3210;48.708;9.030;2023-02-28T15:00:28;8.77;;;6.20;;
6354;SDS011;3210;48.708;9.030;2023-02-28T15:02:56;11.03;;;7.00;;
6354;SDS011;3210;48.708;9.030;2023-02-28T15:05:47;8.40;;;6.40;;
6354;SDS011;3210;48.708;9.030;2023-02-28T15:08:18;6.60;;;5.73;;
6354;SDS011;3210;48.708;9.030;2023-02-28T15:10:45;6.80;;;5.83;;
6354;SDS011;3210;48.708;9.030;2023-02-28T15:13:19;9.50;;;6.40;;
6354;SDS011;3210;48.708;9.030;2023-02-28T15:15:47;9.97;;;6.13;;
6354;SDS011;3210;48.708;9.030;2023-02-28T15:18:25;7.53;;;5.60;;
6354;SDS011;3210;48.708;9.030;2023-02-28T15:20:57;7.80;;;6.20;;
6354;SDS011;3210;48.708;9.030;2023-02-28T15:23:28;9.67;;;6.63;;
6354;SDS011;3210;48.708;9.030;2023-02-28T15:25:56;11.57;;;6.70;;
6354;SDS011;3210;48.708;9.030;2023-02-28T15:28:23;10.43;;;6.10;;
6354;SDS011;3210;48.708;9.030;2023-02-28T15:30:52;7.37;;;5.53;;
6354;SDS011;3210;48.708;9.030;2023-02-28T15:33:21;6.60;;;5.77;;
6354;SDS011;3210;48.708;9.030;2023-02-28T15:35:51;7.50;;;5.30;;
6354;SDS011;3210;48.708;9.030;2023-02-28T15:38:29;8.00;;;5.97;;
6354;SDS011;3210;48.708;9.030;2023-02-28T15:41:01;11.57;;;6.60;;
6354;SDS011;3210;48.708;9.030;2023-02-28T15:43:33;10.80;;;6.47;;
6354;SDS011;3210;48.708;9.030;2023-02-28T15:46:03;9.63;;;6.03;;
6354;SDS011;3210;48.708;9.030;2023-02-28T15:48:33;11.57;;;7.20;;
6354;SDS011;3210;48.708;9.030;2023-02-28T15:51:05;13.00;;;7.30;;
6354;SDS011;3210;48.708;9.030;2023-02-28T15:53:35;29.90;;;14.20;;
6354;SDS011;3210;48.708;9.030;2023-02-28T15:56:05;22.50;;;9.40;;
6354;SDS011;3210;48.708;9.030;2023-02-28T15:58:43;14.47;;;8.73;;
6354;SDS011;3210;48.708;9.030;2023-02-28T16:01:18;7.13;;;5.33;;
6354;SDS011;3210;48.708;9.030;2023-02-28T16:03:50;10.40;;;6.33;;
6354;SDS011;3210;48.708;9.030;2023-02-28T16:06:23;7.80;;;6.50;;
6354;SDS011;3210;48.708;9.030;2023-02-28T16:09:01;10.17;;;5.90;;
6354;SDS011;3210;48.708;9.030;2023-02-28T16:11:30;10.30;;;6.67;;
6354;SDS011;3210;48.708;9.030;2023-02-28T16:13:59;10.27;;;5.83;;